Time;durP1;ratioP1;P1;durP2;ratioP2;P2;SDS_P1;SDS_P2;PMS_P1;PMS_P2;Temp;Humidity;BMP_temperature;BMP_pressure;BME280_temperature;BME280_humidity;BME280_pressure;Samples;Min_cycle;Max_cycle;Signal;HPM_P1;HPM_P2
2024/03/27 00:00:50;;;;;;;28.00;16.60;;;;;;;3.09;61.99;99185.07;107235;1257;74578;-37
2024/03/27 00:03:17;;;;;;;30.60;18.70;;;;;;;3.06;61.96;99182.25;107229;1257;67602;-37
2024/03/27 00:05:45;;;;;;;31.40;18.90;;;;;;;3.01;61.80;99187.30;107269;1261;72715;-37
2024/03/27 00:08:13;;;;;;;29.80;17.10;;;;;;;2.92;61.90;99185.35;107163;1257;61260;-37
2024/03/27 00:10:41;;;;;;;27.90;16.90;;;;;;;2.77;61.72;99175.19;107232;1256;61401;-37
2024/03/27 00:13:08;;;;;;;28.70;17.50;;;;;;;2.75;61.91;99185.27;107111;1257;74642;-37
2024/03/27 00:15:36;;;;;;;27.30;17.10;;;;;;;2.72;62.10;99187.42;107197;1261;67702;-37
2024/03/27 00:18:03;;;;;;;27.40;16.20;;;;;;;2.71;62.14;99189.29;107144;1259;71402;-37
2024/03/27 00:20:31;;;;;;;28.30;17.20;;;;;;;2.70;62.17;99194.36;107158;1257;61278;-37
2024/03/27 00:22:58;;;;;;;26.90;16.40;;;;;;;2.69;62.16;99199.48;107201;1257;61104;-37
2024/03/27 00:25:26;;;;;;;25.50;16.50;;;;;;;2.68;62.29;99202.43;107239;1262;74647;-37
2024/03/27 00:27:53;;;;;;;24.40;16.20;;;;;;;2.65;62.40;99205.69;107239;1257;65318;-37
2024/03/27 00:30:21;;;;;;;24.40;16.50;;;;;;;2.63;62.41;99206.33;107264;1257;72671;-37
2024/03/27 00:32:48;;;;;;;27.90;16.40;;;;;;;2.61;62.47;99207.02;107260;1261;61119;-37
2024/03/27 00:35:16;;;;;;;26.60;16.60;;;;;;;2.61;62.40;99206.93;107276;1257;60483;-38
2024/03/27 00:37:43;;;;;;;27.80;16.80;;;;;;;2.60;62.59;99206.08;107217;1257;73390;-38
2024/03/27 00:40:12;;;;;;;25.10;15.80;;;;;;;2.57;62.78;99206.82;107226;1257;66439;-37
2024/03/27 00:42:40;;;;;;;26.60;16.10;;;;;;;2.54;62.72;99206.21;107333;1263;72688;-37
2024/03/27 00:45:08;;;;;;;26.30;16.70;;;;;;;2.52;62.67;99203.58;107274;1257;61263;-37
2024/03/27 00:47:36;;;;;;;28.00;16.40;;;;;;;2.50;62.86;99206.95;106448;1261;1002855;-37
2024/03/27 00:50:04;;;;;;;27.90;17.00;;;;;;;2.48;62.56;99199.79;107102;1257;74670;-37
2024/03/27 00:52:32;;;;;;;27.80;16.00;;;;;;;2.45;62.90;99197.68;107150;1258;66633;-37
2024/03/27 00:54:59;;;;;;;25.20;16.00;;;;;;;2.42;62.72;99204.20;107168;1257;71421;-37
2024/03/27 00:57:27;;;;;;;28.30;16.30;;;;;;;2.39;62.70;99204.48;107117;1258;60391;-37
2024/03/27 00:59:55;;;;;;;26.40;17.00;;;;;;;2.37;62.92;99203.48;107279;1260;61307;-37
2024/03/27 01:02:22;;;;;;;26.00;15.90;;;;;;;2.35;62.95;99205.13;107272;1257;73721;-37
2024/03/27 01:04:50;;;;;;;28.00;16.50;;;;;;;2.36;63.05;99207.23;107236;1257;66268;-37
2024/03/27 01:07:17;;;;;;;28.50;16.20;;;;;;;2.46;62.92;99212.95;107221;1261;72700;-37
2024/03/27 01:09:45;;;;;;;26.40;16.20;;;;;;;2.50;62.78;99217.02;107221;1262;61340;-37
2024/03/27 01:12:12;;;;;;;27.20;15.80;;;;;;;2.51;63.16;99215.77;107242;1258;61422;-37
2024/03/27 01:14:43;;;;;;;27.40;16.60;;;;;;;2.52;63.09;99217.91;107247;1257;73864;-37
2024/03/27 01:17:11;;;;;;;28.30;17.50;;;;;;;2.53;63.23;99220.40;107263;1257;66613;-38
2024/03/27 01:19:38;;;;;;;28.50;18.10;;;;;;;2.53;63.55;99219.33;107284;1257;71431;-38
2024/03/27 01:22:05;;;;;;;27.00;17.00;;;;;;;2.53;63.74;99223.46;107223;1258;60413;-38
2024/03/27 01:24:33;;;;;;;29.30;17.60;;;;;;;2.52;63.85;99229.89;107209;1261;61154;-37
2024/03/27 01:27:00;;;;;;;26.80;16.70;;;;;;;2.51;63.77;99226.95;107224;1256;74767;-37
2024/03/27 01:29:28;;;;;;;29.10;18.00;;;;;;;2.50;63.90;99228.95;107216;1257;66342;-37
2024/03/27 01:31:55;;;;;;;32.80;17.70;;;;;;;2.48;64.07;99235.36;107077;1260;72661;-37
2024/03/27 01:34:23;;;;;;;28.60;17.70;;;;;;;2.43;64.22;99233.91;107177;1257;61320;-36
2024/03/27 01:36:50;;;;;;;29.80;16.20;;;;;;;2.39;64.31;99236.08;107196;1262;61228;-37
2024/03/27 01:39:17;;;;;;;27.70;15.90;;;;;;;2.39;64.57;99237.27;107183;1258;74774;-37
2024/03/27 01:41:45;;;;;;;24.50;15.60;;;;;;;2.41;64.59;99243.44;107229;1261;67686;-37
2024/03/27 01:44:21;;;;;;;28.50;15.90;;;;;;;2.39;64.80;99247.39;107173;1257;72660;-37
2024/03/27 01:46:49;;;;;;;25.90;15.60;;;;;;;2.39;65.03;99250.05;107018;1257;61090;-38
2024/03/27 01:49:17;;;;;;;28.80;15.30;;;;;;;2.40;65.00;99246.08;107307;1258;61094;-37
2024/03/27 01:51:45;;;;;;;25.50;15.10;;;;;;;2.43;64.84;99247.71;107320;1257;74751;-37
2024/03/27 01:54:16;;;;;;;24.40;15.10;;;;;;;2.41;64.97;99244.23;107172;1261;68460;-37
2024/03/27 01:56:44;;;;;;;25.70;15.40;;;;;;;2.41;65.36;99245.20;107230;1257;73139;-37
2024/03/27 01:59:11;;;;;;;27.80;15.30;;;;;;;2.38;65.59;99245.55;107154;1258;61288;-37
2024/03/27 02:01:40;;;;;;;26.30;15.10;;;;;;;2.35;65.73;99245.36;107046;1258;61203;-37
2024/03/27 02:04:07;;;;;;;27.10;14.20;;;;;;;2.32;65.68;99247.63;107066;1263;73682;-37
2024/03/27 02:06:35;;;;;;;24.90;14.50;;;;;;;2.33;65.79;99250.13;107052;1260;67953;-37
2024/03/27 02:09:02;;;;;;;24.30;13.80;;;;;;;2.41;65.78;99254.30;107225;1257;71370;-37
2024/03/27 02:11:30;;;;;;;24.80;14.30;;;;;;;2.42;65.98;99257.94;107243;1263;61343;-37
2024/03/27 02:13:57;;;;;;;23.60;14.40;;;;;;;2.42;66.06;99258.70;107146;1257;61218;-37
2024/03/27 02:16:24;;;;;;;24.50;14.80;;;;;;;2.44;66.15;99256.23;107103;1258;74656;-37
2024/03/27 02:18:52;;;;;;;26.30;15.20;;;;;;;2.45;65.99;99256.39;107099;1260;67743;-37
2024/03/27 02:21:19;;;;;;;27.80;15.00;;;;;;;2.44;66.04;99258.06;107081;1257;71370;-37
2024/03/27 02:24:15;;;;;;;24.50;13.90;;;;;;;2.41;66.12;99260.13;106414;1258;1003811;-37
2024/03/27 02:26:42;;;;;;;25.90;14.90;;;;;;;2.37;66.38;99262.33;107189;1257;60387;-38
2024/03/27 02:29:10;;;;;;;27.40;14.40;;;;;;;2.32;66.85;99265.66;107170;1263;73361;-38
2024/03/27 02:31:37;;;;;;;23.20;13.30;;;;;;;2.29;66.93;99262.90;106510;1257;1002809;-38
2024/03/27 02:34:05;;;;;;;20.90;13.70;;;;;;;2.32;67.13;99262.88;107231;1257;73032;-38
2024/03/27 02:36:32;;;;;;;22.10;12.80;;;;;;;2.40;67.36;99261.91;107284;1263;61365;-38
2024/03/27 02:38:59;;;;;;;17.10;11.00;;;;;;;2.43;67.64;99263.27;107232;1257;61250;-38
2024/03/27 02:41:27;;;;;;;18.50;11.60;;;;;;;2.46;68.20;99271.98;107206;1262;74575;-38
2024/03/27 02:43:54;;;;;;;23.00;12.20;;;;;;;2.50;68.68;99275.39;107201;1258;66436;-38
2024/03/27 02:46:22;;;;;;;20.70;12.40;;;;;;;2.55;68.31;99282.96;107196;1259;71488;-38
2024/03/27 02:48:49;;;;;;;22.00;13.20;;;;;;;2.59;68.10;99282.48;107202;1257;61783;-38
2024/03/27 02:51:16;;;;;;;22.30;13.10;;;;;;;2.62;68.09;99281.66;107204;1261;61115;-38
2024/03/27 02:53:44;;;;;;;20.80;11.90;;;;;;;2.62;67.82;99289.52;107207;1259;73352;-38
2024/03/27 02:56:11;;;;;;;21.10;12.40;;;;;;;2.60;67.82;99289.59;107180;1256;65621;-38
2024/03/27 02:58:39;;;;;;;19.80;12.60;;;;;;;2.59;67.47;99285.05;107109;1261;72714;-38
2024/03/27 03:01:06;;;;;;;21.00;12.70;;;;;;;2.57;67.53;99289.40;107103;1257;61218;-38
2024/03/27 03:03:33;;;;;;;20.80;12.80;;;;;;;2.54;67.43;99288.13;107124;1263;61129;-38
2024/03/27 03:06:01;;;;;;;20.70;12.00;;;;;;;2.51;67.71;99288.73;107208;1262;74736;-38
2024/03/27 03:08:28;;;;;;;17.10;11.00;;;;;;;2.55;67.89;99296.56;107123;1257;67934;-38
2024/03/27 03:10:55;;;;;;;18.50;12.00;;;;;;;2.62;67.64;99298.09;107191;1260;72699;-38
2024/03/27 03:13:23;;;;;;;18.40;10.20;;;;;;;2.65;67.87;99301.66;107240;1260;61205;-38
2024/03/27 03:15:50;;;;;;;16.70;11.00;;;;;;;2.65;68.77;99301.66;107237;1258;61058;-38
2024/03/27 03:18:18;;;;;;;18.90;10.60;;;;;;;2.66;69.11;99296.09;107266;1263;73416;-38
2024/03/27 03:20:45;;;;;;;17.40;11.40;;;;;;;2.66;68.82;99294.73;107207;1263;67930;-38
2024/03/27 03:23:13;;;;;;;16.20;11.10;;;;;;;2.65;68.83;99293.59;107243;1258;72369;-38
2024/03/27 03:25:40;;;;;;;16.20;10.90;;;;;;;2.65;69.11;99302.10;107243;1259;61144;-38
2024/03/27 03:28:09;;;;;;;22.70;10.40;;;;;;;2.63;69.48;99304.69;107229;1263;60010;-36
2024/03/27 03:30:37;;;;;;;19.30;10.90;;;;;;;2.62;69.43;99305.31;107245;1257;73410;-36
2024/03/27 03:33:04;;;;;;;17.20;10.00;;;;;;;2.60;69.37;99303.77;107203;1262;65307;-37
2024/03/27 03:35:31;;;;;;;16.20;10.30;;;;;;;2.64;68.87;99303.59;107194;1258;71401;-37
2024/03/27 03:37:59;;;;;;;15.70;9.40;;;;;;;2.71;68.52;99303.30;106478;1257;1002871;-37
2024/03/27 03:40:27;;;;;;;17.10;10.30;;;;;;;2.72;68.96;99302.05;104233;1258;1003040;-37
2024/03/27 03:42:54;;;;;;;17.10;10.40;;;;;;;2.72;68.67;99301.73;107081;1257;74717;-37
2024/03/27 03:45:22;;;;;;;15.00;9.90;;;;;;;2.72;68.40;99301.61;107092;1258;67158;-37
2024/03/27 03:47:49;;;;;;;17.00;10.30;;;;;;;2.73;68.20;99301.02;107079;1261;71447;-37
2024/03/27 03:50:16;;;;;;;16.40;9.90;;;;;;;2.72;68.37;99299.50;107176;1264;61333;-37
2024/03/27 03:52:44;;;;;;;18.90;11.00;;;;;;;2.70;67.96;99301.11;107253;1262;61137;-37
2024/03/27 03:55:11;;;;;;;15.40;9.90;;;;;;;2.68;68.02;99294.04;107262;1257;74062;-37
2024/03/27 03:57:39;;;;;;;16.80;9.10;;;;;;;2.66;68.21;99293.20;107227;1257;67890;-37
2024/03/27 04:00:15;;;;;;;18.20;9.70;;;;;;;2.65;68.81;99286.80;107215;1262;71465;-37
2024/03/27 04:02:42;;;;;;;14.40;8.80;;;;;;;2.67;69.08;99285.36;107214;1257;61256;-37
2024/03/27 04:05:10;;;;;;;14.00;9.80;;;;;;;2.72;69.13;99286.89;107234;1257;61138;-37
2024/03/27 04:07:39;;;;;;;12.10;7.50;;;;;;;2.69;69.51;99280.83;107231;1257;74688;-37
2024/03/27 04:10:07;;;;;;;14.90;9.40;;;;;;;2.70;69.92;99281.08;107217;1258;66430;-38
2024/03/27 04:12:34;;;;;;;14.50;9.20;;;;;;;2.69;70.46;99286.72;107107;1263;71861;-37
2024/03/27 04:15:05;;;;;;;17.20;9.80;;;;;;;2.70;70.76;99290.73;107226;1263;61368;-37
2024/03/27 04:17:32;;;;;;;12.00;9.00;;;;;;;2.71;71.26;99295.66;107246;1257;60102;-37
2024/03/27 04:20:00;;;;;;;12.00;8.50;;;;;;;2.78;71.66;99299.98;107191;1262;74626;-37
2024/03/27 04:22:31;;;;;;;14.80;9.60;;;;;;;2.90;71.87;99297.50;107230;1262;67583;-37
2024/03/27 04:24:58;;;;;;;15.80;9.00;;;;;;;2.96;72.17;99297.73;107219;1257;71399;-37
2024/03/27 04:27:25;;;;;;;13.70;8.90;;;;;;;3.00;72.40;99296.14;107200;1257;61125;-37
2024/03/27 04:29:54;;;;;;;15.40;9.30;;;;;;;3.04;72.45;99300.22;107227;1257;60473;-37
2024/03/27 04:32:22;;;;;;;14.60;9.00;;;;;;;3.07;72.78;99299.44;107299;1257;74634;-37
2024/03/27 04:34:50;;;;;;;11.90;8.50;;;;;;;3.10;72.96;99300.20;107286;1257;66676;-37
2024/03/27 04:37:17;;;;;;;10.60;7.40;;;;;;;3.18;73.07;99296.34;107044;1258;71749;-37
2024/03/27 04:39:45;;;;;;;14.10;8.40;;;;;;;3.25;73.28;99298.06;107077;1258;61328;-37
2024/03/27 04:42:13;;;;;;;12.90;8.00;;;;;;;3.25;73.58;99298.75;107171;1261;61199;-37
2024/03/27 04:44:40;;;;;;;12.20;7.90;;;;;;;3.25;73.88;99298.91;107224;1257;73431;-37
2024/03/27 04:47:08;;;;;;;14.50;8.20;;;;;;;3.27;73.93;99302.45;107197;1258;65959;-36
2024/03/27 04:49:36;;;;;;;13.70;8.90;;;;;;;3.31;74.24;99303.83;107183;1257;71804;-37
2024/03/27 04:52:03;;;;;;;13.80;7.80;;;;;;;3.37;74.47;99300.54;107222;1257;61240;-37
2024/03/27 04:54:31;;;;;;;12.20;7.80;;;;;;;3.50;74.73;99303.45;107222;1258;61077;-37
2024/03/27 04:56:58;;;;;;;12.70;7.70;;;;;;;3.61;74.95;99301.20;107210;1256;74662;-36
2024/03/27 04:59:25;;;;;;;12.00;7.90;;;;;;;3.69;75.28;99300.64;107196;1262;66676;-37
2024/03/27 05:01:53;;;;;;;13.20;8.60;;;;;;;3.78;75.39;99303.03;107195;1263;71443;-37
2024/03/27 05:04:20;;;;;;;14.90;8.60;;;;;;;3.87;75.50;99307.48;107199;1257;61110;-37
2024/03/27 05:06:49;;;;;;;11.60;7.40;;;;;;;3.96;75.38;99305.73;107249;1257;61171;-37
2024/03/27 05:09:16;;;;;;;9.50;6.50;;;;;;;4.12;75.31;99309.64;107208;1257;73362;-37
2024/03/27 05:11:44;;;;;;;10.70;6.90;;;;;;;4.28;75.35;99306.90;107257;1257;66323;-37
2024/03/27 05:14:11;;;;;;;11.70;8.60;;;;;;;4.42;75.28;99309.84;107209;1257;71496;-37
2024/03/27 05:16:40;;;;;;;10.10;7.30;;;;;;;4.53;75.39;99310.54;107108;1257;61057;-37
2024/03/27 05:19:08;;;;;;;11.40;7.40;;;;;;;4.62;75.18;99309.87;107138;1257;59690;-37
2024/03/27 05:21:36;;;;;;;12.80;6.90;;;;;;;4.72;75.05;99314.27;107179;1263;74668;-37
2024/03/27 05:24:04;;;;;;;11.40;7.70;;;;;;;4.81;75.07;99314.40;107161;1257;67578;-37
2024/03/27 05:26:32;;;;;;;10.80;7.10;;;;;;;4.88;75.04;99318.47;107186;1257;72701;-37
2024/03/27 05:28:59;;;;;;;11.00;7.10;;;;;;;4.98;74.94;99316.48;107153;1257;61203;-37
2024/03/27 05:31:27;;;;;;;13.30;7.40;;;;;;;5.02;74.67;99306.44;107215;1256;61174;-37
2024/03/27 05:33:54;;;;;;;11.10;7.00;;;;;;;5.16;74.71;99316.41;107140;1257;74805;-37
2024/03/27 05:36:21;;;;;;;11.70;7.90;;;;;;;5.22;74.54;99318.88;107012;1257;66401;-37
2024/03/27 05:38:48;;;;;;;19.50;13.90;;;;;;;5.27;74.52;99314.29;107228;1258;72709;-37
2024/03/27 05:41:16;;;;;;;16.20;8.70;;;;;;;5.30;74.48;99319.40;107193;1257;61253;-37
2024/03/27 05:43:44;;;;;;;11.50;7.60;;;;;;;5.33;74.33;99324.73;107224;1257;59958;-37
2024/03/27 05:46:11;;;;;;;10.80;7.10;;;;;;;5.35;74.40;99323.52;107190;1258;73426;-37
2024/03/27 05:48:38;;;;;;;10.60;6.90;;;;;;;5.45;74.38;99331.27;107218;1257;67933;-37
2024/03/27 05:51:06;;;;;;;13.30;8.10;;;;;;;5.57;74.15;99331.98;107191;1257;72702;-38
2024/03/27 05:53:34;;;;;;;11.30;7.60;;;;;;;5.61;74.12;99327.46;107235;1263;60479;-38
2024/03/27 05:56:01;;;;;;;16.00;9.70;;;;;;;5.64;73.96;99329.50;107278;1256;61008;-38
2024/03/27 05:58:28;;;;;;;11.40;8.20;;;;;;;5.67;74.09;99329.29;107219;1262;73403;-38
2024/03/27 06:00:56;;;;;;;10.80;7.80;;;;;;;5.74;74.12;99332.54;107155;1257;66852;-38
2024/03/27 06:03:24;;;;;;;12.40;7.40;;;;;;;5.83;74.04;99336.88;107067;1257;72686;-38
2024/03/27 06:05:52;;;;;;;11.00;7.30;;;;;;;5.95;73.61;99338.66;107096;1257;61209;-38
2024/03/27 06:08:19;;;;;;;11.60;7.60;;;;;;;6.09;73.30;99337.00;107107;1257;61303;-38
2024/03/27 06:10:48;;;;;;;10.80;7.20;;;;;;;6.16;73.23;99337.48;107112;1262;74735;-38
2024/03/27 06:13:15;;;;;;;12.10;8.00;;;;;;;6.22;73.18;99336.68;107132;1257;69139;-38
2024/03/27 06:15:43;;;;;;;13.70;7.10;;;;;;;6.29;72.76;99333.59;107184;1257;73355;-38
2024/03/27 06:18:10;;;;;;;12.00;6.60;;;;;;;6.36;72.47;99330.02;107211;1257;61256;-38
2024/03/27 06:20:38;;;;;;;10.00;6.50;;;;;;;6.42;72.23;99334.24;107242;1257;61099;-38
2024/03/27 06:23:05;;;;;;;9.30;6.00;;;;;;;6.51;71.93;99335.40;107239;1257;73778;-38
2024/03/27 06:25:32;;;;;;;8.90;6.00;;;;;;;6.67;70.92;99340.40;107249;1257;67683;-38
2024/03/27 06:28:00;;;;;;;8.50;5.20;;;;;;;6.77;70.56;99339.77;107187;1256;72755;-38
2024/03/27 06:30:27;;;;;;;11.00;5.50;;;;;;;6.83;70.21;99338.98;107217;1262;61314;-38
2024/03/27 06:32:55;;;;;;;10.20;5.70;;;;;;;6.91;70.22;99336.59;107176;1257;61190;-38
2024/03/27 06:35:22;;;;;;;9.40;5.20;;;;;;;7.00;69.91;99339.19;107050;1263;74674;-38
2024/03/27 06:37:50;;;;;;;6.90;4.70;;;;;;;7.09;69.31;99339.64;107228;1257;67164;-38
2024/03/27 06:40:17;;;;;;;7.10;4.70;;;;;;;7.18;68.77;99342.17;107219;1257;72506;-37
2024/03/27 06:42:44;;;;;;;8.40;5.20;;;;;;;7.29;68.71;99342.27;107245;1257;61372;-37
2024/03/27 06:45:13;;;;;;;7.60;4.30;;;;;;;7.42;67.88;99341.52;107241;1257;61177;-37
2024/03/27 06:47:48;;;;;;;5.00;3.70;;;;;;;7.61;66.92;99338.48;107234;1258;74611;-36
2024/03/27 06:50:16;;;;;;;5.10;3.00;;;;;;;7.79;65.90;99338.71;107196;1257;66319;-37
2024/03/27 06:52:45;;;;;;;4.20;3.00;;;;;;;7.93;63.99;99333.96;107215;1257;72750;-37
2024/03/27 06:55:13;;;;;;;5.40;3.20;;;;;;;8.05;63.85;99331.67;107234;1261;61129;-37
2024/03/27 06:57:40;;;;;;;3.30;2.80;;;;;;;8.20;62.90;99335.49;107217;1258;61109;-37
2024/03/27 07:00:09;;;;;;;6.60;3.10;;;;;;;8.33;61.90;99329.94;107214;1257;73441;-37
2024/03/27 07:02:37;;;;;;;4.80;3.10;;;;;;;8.47;60.75;99331.77;107205;1261;67625;-37
2024/03/27 07:05:07;;;;;;;4.20;2.90;;;;;;;8.56;60.85;99324.14;107184;1257;73022;-37
2024/03/27 07:07:35;;;;;;;6.10;3.70;;;;;;;8.66;60.31;99321.41;107331;1257;60406;-37
2024/03/27 07:10:03;;;;;;;6.40;3.20;;;;;;;8.79;59.47;99322.80;107098;1257;193073;-37
2024/03/27 07:13:55;;;;;;;7.50;3.50;;;;;;;8.94;58.18;99317.02;104190;1293;600151;-37
2024/03/27 07:16:25;;;;;;;6.60;2.30;;;;;;;9.02;57.04;99317.81;106728;1272;59295;-37
2024/03/27 07:18:55;;;;;;;7.50;3.00;;;;;;;9.10;56.70;99317.77;106737;1267;59523;-37
2024/03/27 07:21:23;;;;;;;5.40;2.60;;;;;;;9.21;56.30;99317.17;106769;1267;73137;-37
2024/03/27 07:23:50;;;;;;;4.30;2.80;;;;;;;9.32;55.69;99314.50;106724;1267;68359;-37
2024/03/27 07:26:18;;;;;;;7.20;3.00;;;;;;;9.40;54.85;99314.01;106730;1269;71754;-37
2024/03/27 07:28:45;;;;;;;4.10;2.60;;;;;;;9.45;53.59;99320.98;106631;1268;218222;-37
2024/03/27 07:31:13;;;;;;;8.30;2.90;;;;;;;9.47;53.23;99323.98;106850;1267;62073;-37
2024/03/27 07:33:41;;;;;;;5.00;3.20;;;;;;;9.49;53.00;99320.92;106778;1264;73294;-37
2024/03/27 07:36:09;;;;;;;7.70;3.30;;;;;;;9.56;53.10;99314.05;106773;1268;67137;-37
2024/03/27 07:38:36;;;;;;;7.30;3.70;;;;;;;9.69;52.75;99315.64;106842;1267;72229;-37
2024/03/27 07:41:04;;;;;;;7.00;3.00;;;;;;;9.83;51.52;99307.81;107024;1261;60450;-37
2024/03/27 07:43:31;;;;;;;9.40;3.30;;;;;;;9.93;49.84;99310.58;107044;1260;60325;-37
2024/03/27 07:46:05;;;;;;;9.90;3.90;;;;;;;10.02;49.75;99311.39;107002;1265;75125;-37
2024/03/27 07:48:33;;;;;;;5.60;3.90;;;;;;;10.15;49.56;99308.23;107022;1260;70254;-37
2024/03/27 07:51:01;;;;;;;8.80;4.50;;;;;;;10.29;49.23;99306.67;107043;1260;71471;-37
2024/03/27 07:53:28;;;;;;;9.30;5.00;;;;;;;10.45;49.38;99310.69;107016;1264;60431;-37
2024/03/27 07:56:03;;;;;;;6.00;3.90;;;;;;;10.59;48.58;99301.64;106929;1260;60325;-37
2024/03/27 07:58:30;;;;;;;8.00;4.40;;;;;;;10.75;46.71;99300.86;106203;1260;1003072;-37
2024/03/27 08:00:58;;;;;;;6.10;4.10;;;;;;;10.86;46.31;99298.41;106911;1266;67358;-37
2024/03/27 08:03:28;;;;;;;5.20;3.60;;;;;;;10.99;46.05;99292.09;107046;1261;71465;-37
2024/03/27 08:05:55;;;;;;;;;;;;;;;11.11;45.71;99292.59;107029;1261;60267;-37
2024/03/27 08:08:22;;;;;;;6.50;3.60;;;;;;;11.20;45.03;99283.80;107029;1266;62032;-37
2024/03/27 08:10:57;;;;;;;7.80;4.80;;;;;;;11.28;45.46;99288.89;106964;1266;72768;-37
2024/03/27 08:13:24;;;;;;;5.80;3.90;;;;;;;11.41;45.42;99291.48;107075;1267;70162;-37
2024/03/27 08:15:52;;;;;;;8.20;4.30;;;;;;;11.51;45.42;99289.84;107037;1266;71610;-37
2024/03/27 08:18:20;;;;;;;7.20;3.90;;;;;;;11.59;45.19;99283.91;107049;1266;60510;-37
2024/03/27 08:20:57;;;;;;;5.80;3.00;;;;;;;11.61;44.75;99284.09;107023;1265;60626;-37
2024/03/27 08:23:24;;;;;;;7.10;3.50;;;;;;;11.64;43.84;99281.58;107056;1261;74312;-37
2024/03/27 08:25:51;;;;;;;4.90;2.50;;;;;;;11.73;43.22;99282.25;107005;1260;66577;-37
2024/03/27 08:28:19;;;;;;;5.60;2.70;;;;;;;11.83;41.43;99272.23;106999;1262;71301;-37
2024/03/27 08:30:46;;;;;;;6.60;2.80;;;;;;;11.89;41.04;99266.86;107046;1264;60361;-37
2024/03/27 08:33:14;;;;;;;3.80;2.10;;;;;;;11.96;40.98;99264.68;107031;1266;60438;-37
2024/03/27 08:35:42;;;;;;;3.40;2.20;;;;;;;12.04;41.06;99261.91;107052;1262;74000;-37
2024/03/27 08:38:10;;;;;;;3.60;2.10;;;;;;;12.17;39.08;99263.53;107031;1265;66732;-37
2024/03/27 08:40:41;;;;;;;5.90;2.30;;;;;;;12.22;39.79;99262.10;106998;1264;73040;-37
2024/03/27 08:43:09;;;;;;;3.70;2.10;;;;;;;12.37;39.10;99265.69;107016;1261;60599;-37
2024/03/27 08:45:36;;;;;;;4.80;2.00;;;;;;;12.51;38.38;99267.52;107059;1260;60514;-37
2024/03/27 08:48:04;;;;;;;3.70;2.00;;;;;;;12.62;37.99;99269.50;107032;1264;73212;-37
2024/03/27 08:50:32;;;;;;;7.30;2.20;;;;;;;12.73;37.98;99258.63;107054;1261;68077;-37
2024/03/27 08:52:59;;;;;;;8.50;2.20;;;;;;;12.99;37.02;99266.47;107009;1266;74865;-37
2024/03/27 08:55:27;;;;;;;3.00;2.10;;;;;;;13.15;36.41;99266.60;107001;1266;62266;-37
2024/03/27 08:57:54;;;;;;;4.10;2.10;;;;;;;13.23;36.78;99270.79;106995;1266;60412;-37
2024/03/27 09:00:22;;;;;;;5.20;2.00;;;;;;;13.32;36.72;99265.55;107016;1265;75057;-38
2024/03/27 09:02:49;;;;;;;7.00;2.60;;;;;;;13.38;36.49;99264.11;107031;1261;70246;-38
2024/03/27 09:05:17;;;;;;;3.60;2.50;;;;;;;13.44;36.37;99260.02;106925;1266;74903;-38
2024/03/27 09:07:45;;;;;;;5.90;2.10;;;;;;;13.59;36.08;99258.30;106984;1261;60486;-38
2024/03/27 09:10:12;;;;;;;3.10;2.10;;;;;;;13.75;36.16;99264.00;107003;1260;60275;-38
2024/03/27 09:12:39;;;;;;;2.70;2.00;;;;;;;13.95;34.98;99262.67;107005;1260;76110;-38
2024/03/27 09:15:07;;;;;;;4.70;2.80;;;;;;;14.12;33.50;99251.90;107010;1267;66656;-38
2024/03/27 09:17:35;;;;;;;4.80;2.50;;;;;;;14.27;33.80;99256.16;107074;1265;72771;-38
2024/03/27 09:20:03;;;;;;;4.60;1.90;;;;;;;14.38;33.94;99257.98;107007;1261;62421;-38
2024/03/27 09:22:34;;;;;;;2.60;2.00;;;;;;;14.48;33.87;99251.92;107056;1265;60676;-38
2024/03/27 09:25:04;;;;;;;5.30;2.30;;;;;;;14.56;33.67;99250.70;107022;1261;72613;-38
2024/03/27 09:27:35;;;;;;;2.70;2.10;;;;;;;14.65;34.18;99249.14;107029;1267;68074;-38
2024/03/27 09:30:02;;;;;;;2.70;1.70;;;;;;;14.80;33.15;99241.81;107032;1263;71620;-38
2024/03/27 09:32:33;;;;;;;3.20;2.10;;;;;;;14.95;32.53;99236.66;107052;1260;60470;-38
2024/03/27 09:35:00;;;;;;;4.40;2.20;;;;;;;15.02;32.73;99235.95;106996;1265;60303;-38
2024/03/27 09:37:28;;;;;;;5.00;2.00;;;;;;;15.07;32.85;99233.92;106969;1262;72614;-38
2024/03/27 09:39:55;;;;;;;4.60;2.30;;;;;;;15.18;32.68;99233.21;106996;1260;67159;-38
2024/03/27 09:42:23;;;;;;;4.20;2.30;;;;;;;15.35;32.95;99232.31;106997;1266;75376;-38
2024/03/27 09:44:50;;;;;;;3.10;2.30;;;;;;;15.53;31.94;99227.74;107010;1260;60285;-38
2024/03/27 09:47:19;;;;;;;3.60;2.40;;;;;;;15.58;31.99;99228.22;107015;1260;60519;-38
2024/03/27 09:49:46;;;;;;;4.30;2.90;;;;;;;15.63;31.93;99224.38;107005;1260;74230;-38
2024/03/27 09:52:14;;;;;;;4.40;2.50;;;;;;;15.68;31.78;99223.57;107019;1261;69872;-38
2024/03/27 09:54:41;;;;;;;3.60;2.40;;;;;;;15.68;31.17;99229.73;106985;1265;72829;-38
2024/03/27 09:57:10;;;;;;;3.50;2.60;;;;;;;15.66;31.68;99227.88;106845;1266;61168;-38
2024/03/27 09:59:43;;;;;;;3.80;2.60;;;;;;;15.74;31.66;99222.99;107007;1260;60392;-38
2024/03/27 10:02:12;;;;;;;5.80;3.50;;;;;;;15.89;31.55;99219.02;107044;1260;72995;-38
2024/03/27 10:04:39;;;;;;;3.90;2.40;;;;;;;15.95;30.54;99231.34;106878;1261;67777;-38
2024/03/27 10:07:07;;;;;;;4.40;2.40;;;;;;;16.02;30.11;99223.73;106877;1267;71841;-38
2024/03/27 10:09:35;;;;;;;3.80;2.50;;;;;;;16.15;30.04;99215.61;107019;1266;60475;-38
2024/03/27 10:12:02;;;;;;;4.80;2.60;;;;;;;16.27;29.91;99215.83;106982;1260;60417;-38
2024/03/27 10:14:30;;;;;;;4.40;2.90;;;;;;;16.44;31.06;99214.80;106983;1261;74198;-38
2024/03/27 10:16:58;;;;;;;4.30;2.60;;;;;;;16.59;30.48;99201.02;107058;1258;68381;-38
2024/03/27 10:19:25;;;;;;;4.50;2.70;;;;;;;16.60;30.85;99202.83;107193;1257;74899;-38
2024/03/27 10:21:52;;;;;;;4.10;2.30;;;;;;;16.60;29.70;99201.80;107113;1257;60439;-38
2024/03/27 10:24:20;;;;;;;5.30;2.50;;;;;;;16.63;29.97;99202.70;106999;1256;60971;-38
2024/03/27 10:26:48;;;;;;;7.00;2.80;;;;;;;16.73;29.56;99195.20;107149;1257;76041;-38
2024/03/27 10:29:15;;;;;;;6.80;3.00;;;;;;;16.80;29.59;99200.77;107247;1257;66947;-39
2024/03/27 10:31:43;;;;;;;5.10;3.00;;;;;;;16.85;29.40;99196.33;107218;1260;71458;-38
2024/03/27 10:34:11;;;;;;;10.70;7.70;;;;;;;16.90;29.85;99193.25;107296;1257;60401;-39
2024/03/27 10:36:40;;;;;;;9.90;4.40;;;;;;;17.05;29.67;99191.38;107300;1258;59256;-39
2024/03/27 10:39:10;;;;;;;5.30;2.90;;;;;;;17.15;29.32;99190.25;107320;1260;76101;-39
2024/03/27 10:41:40;;;;;;;4.60;2.90;;;;;;;17.18;28.73;99191.71;107285;1257;67281;-39
2024/03/27 10:44:08;;;;;;;8.10;3.40;;;;;;;17.30;28.94;99193.23;107085;1257;72863;-39
2024/03/27 10:46:35;;;;;;;6.40;3.50;;;;;;;17.44;28.71;99193.48;107210;1257;59846;-39
2024/03/27 10:49:04;;;;;;;6.00;3.00;;;;;;;17.37;28.92;99181.48;107296;1257;60411;-39
2024/03/27 10:51:31;;;;;;;5.40;3.30;;;;;;;17.48;28.91;99189.27;107086;1258;74263;-39
2024/03/27 10:53:59;;;;;;;8.80;3.00;;;;;;;17.58;28.14;99188.77;107097;1256;70239;-39
2024/03/27 10:56:26;;;;;;;6.40;3.10;;;;;;;17.61;26.77;99186.80;107290;1257;71482;-39
2024/03/27 10:58:55;;;;;;;9.80;3.30;;;;;;;17.65;27.67;99185.58;107252;1257;59346;-39
2024/03/27 11:01:24;;;;;;;8.20;3.10;;;;;;;17.83;27.15;99187.83;107252;1257;60303;-39
2024/03/27 11:03:52;;;;;;;10.60;3.70;;;;;;;17.98;27.33;99182.08;107224;1257;76026;-39
2024/03/27 11:06:19;;;;;;;8.40;2.90;;;;;;;18.04;27.41;99170.56;107287;1256;68114;-39
2024/03/27 11:08:47;;;;;;;8.70;3.10;;;;;;;18.06;26.94;99168.80;107225;1256;74908;-39
2024/03/27 11:11:14;;;;;;;12.20;3.30;;;;;;;18.11;26.45;99164.66;107291;1257;60615;-39
2024/03/27 11:13:45;;;;;;;11.00;3.40;;;;;;;18.09;27.45;99161.08;107253;1257;60931;-39
2024/03/27 11:16:12;;;;;;;9.80;4.00;;;;;;;18.18;27.49;99159.37;107221;1256;72673;-39
2024/03/27 11:18:45;;;;;;;6.40;3.10;;;;;;;18.39;27.14;99163.52;107245;1257;67644;-39
2024/03/27 11:21:12;;;;;;;7.20;3.20;;;;;;;18.59;26.94;99150.17;107356;1257;71491;-39
2024/03/27 11:23:41;;;;;;;5.00;2.40;;;;;;;18.86;26.11;99144.85;107242;1257;61134;-39
2024/03/27 11:26:08;;;;;;;6.50;2.90;;;;;;;19.00;25.79;99136.27;107253;1257;60567;-39
2024/03/27 11:28:37;;;;;;;7.10;3.00;;;;;;;19.01;26.13;99145.52;107282;1260;74795;-40